Terminal Aerodrome Forecast
Issued by NWS Jackson, MS

Home | Current Version | Previous Version | Text Only | Print | Product List | Glossary On
Versions: 1 2 3 4 5 6 7 8 9 10 11 12
000
FTUS44 KJAN 260539
TAFMEI
TAF
KMEI 260539Z 2606/2706 18006KT 6SM BR VCSH BKN008 BKN050
     FM260830 18005KT 5SM BR VCSH BKN015 BKN060
     FM261000 19004KT 2SM BR VCSH BKN005 BKN060
     FM261400 20005KT 5SM BR BKN008 BKN250
     FM261600 21007KT P6SM BKN015 BKN250
     FM261800 21008KT P6SM FEW025 SCT250=

USA.gov is the U.S. government's official web portal to all federal, state and local government web resources and services.